< < Back
Terminal Aerodrome Forecast


Current Version              Previous Versions:   1  2  3  4  5  6  7  8  9  

Terminal Aerodrome Forecast

948
FTUS42 KFFC 210500
TAFPDK
TAF
KPDK 210532Z 2106/2206 29005KT P6SM SCT150 BKN250
     FM210900 30003KT 3SM BR SCT008
     FM211400 30004KT P6SM SCT025
     FM211700 30006KT P6SM SCT045
     FM220200 31002KT P6SM SKC=



Latest METAR

285
SAUS70 KWBC 212200 RRQ
MTRPDK
METAR KPDK 212153Z 34006KT 9SM CLR 33/20 A3010 RMK AO2 SLP172 T03280200
$


USA.gov is the U.S. government's official web portal to all federal, state and local government web resources and services.